createdAt,value
2022-09-10T00:01:40.858Z,0.45
2022-09-10T00:04:13.218Z,1.23
2022-09-10T00:06:42.615Z,0.65
2022-09-10T00:09:13.107Z,0.70
2022-09-10T00:11:42.382Z,0.77
2022-09-10T00:14:19.864Z,0.93
2022-09-10T00:16:49.346Z,0.60
2022-09-10T00:19:19.113Z,1.35
2022-09-10T00:21:47.243Z,0.90
2022-09-10T00:24:15.899Z,0.60
2022-09-10T00:26:44.389Z,0.90
2022-09-10T00:29:15.802Z,0.70
2022-09-10T00:31:44.846Z,0.80
2022-09-10T00:34:15.309Z,0.68
2022-09-10T00:36:45.503Z,0.68
2022-09-10T00:39:19.163Z,0.70
2022-09-10T00:41:49.786Z,0.57
2022-09-10T00:44:42.625Z,0.60
2022-09-10T00:47:35.352Z,0.80
2022-09-10T00:50:29.501Z,0.90
2022-09-10T00:53:02.597Z,0.70
2022-09-10T00:55:32.938Z,0.70
2022-09-10T00:58:04.412Z,0.63
2022-09-10T01:00:33.329Z,0.70
2022-09-10T01:03:02.958Z,0.60
2022-09-10T01:05:31.578Z,1.17
2022-09-10T01:08:00.187Z,1.20
2022-09-10T01:10:36.018Z,1.70
2022-09-10T01:13:13.406Z,1.35
2022-09-10T01:16:00.483Z,1.20
2022-09-10T01:19:04.286Z,1.10
2022-09-10T01:22:03.744Z,0.90
2022-09-10T01:25:08.892Z,1.00
2022-09-10T01:27:48.973Z,1.00
2022-09-10T01:30:25.386Z,3.22
2022-09-10T01:33:24.512Z,2.35
2022-09-10T01:36:08.198Z,1.50
2022-09-10T01:38:43.312Z,2.40
2022-09-10T01:41:12.604Z,2.00
2022-09-10T01:43:42.963Z,2.22
2022-09-10T01:46:58.875Z,1.63
2022-09-10T01:49:46.748Z,1.83
2022-09-10T01:52:32.897Z,1.25
2022-09-10T01:55:40.003Z,1.58
2022-09-10T01:58:25.029Z,1.30
2022-09-10T02:01:21.511Z,1.10
2022-09-10T02:03:55.261Z,1.10
2022-09-10T02:06:29.539Z,1.00
2022-09-10T02:08:59.391Z,1.33
2022-09-10T02:11:28.494Z,1.20
2022-09-10T02:13:57.221Z,1.15
2022-09-10T02:16:32.471Z,1.65
2022-09-10T02:19:03.081Z,1.30
2022-09-10T02:21:33.328Z,1.17
2022-09-10T02:24:09.075Z,1.08
2022-09-10T02:26:44.549Z,1.80
2022-09-10T02:29:16.577Z,1.45
2022-09-10T02:31:45.873Z,1.77
2022-09-10T02:34:14.626Z,1.55
2022-09-10T02:36:44.089Z,1.42
2022-09-10T02:39:12.703Z,1.27
2022-09-10T02:41:42.144Z,1.30
2022-09-10T02:44:10.752Z,1.23
2022-09-10T02:46:39.545Z,1.60
2022-09-10T02:49:08.306Z,1.50
2022-09-10T02:51:38.265Z,1.52
2022-09-10T02:54:07.169Z,1.30
2022-09-10T02:56:36.023Z,1.48
2022-09-10T02:59:07.501Z,1.95
2022-09-10T03:01:36.469Z,1.40
2022-09-10T03:04:04.855Z,1.63
2022-09-10T03:06:33.882Z,1.60
2022-09-10T03:09:03.600Z,2.15
2022-09-10T03:11:32.602Z,1.85
2022-09-10T03:14:01.005Z,2.13
2022-09-10T03:16:29.572Z,2.00
2022-09-10T03:18:58.435Z,2.10
2022-09-10T03:21:27.640Z,2.75
2022-09-10T03:23:57.172Z,2.78
2022-09-10T03:26:26.445Z,2.30
2022-09-10T03:28:55.077Z,2.15
2022-09-10T03:31:23.154Z,1.90
2022-09-10T03:33:52.329Z,1.70
2022-09-10T03:36:22.263Z,1.92
2022-09-10T03:38:51.482Z,2.25
2022-09-10T03:41:20.220Z,2.00
2022-09-10T03:43:49.169Z,1.95
2022-09-10T03:46:18.124Z,2.92
2022-09-10T03:48:46.620Z,2.10
2022-09-10T03:51:15.394Z,2.03
2022-09-10T03:53:44.995Z,2.33
2022-09-10T03:56:13.746Z,2.20
2022-09-10T03:58:42.383Z,1.80
2022-09-10T04:01:11.024Z,2.10
2022-09-10T04:03:39.654Z,1.83
2022-09-10T04:06:15.134Z,1.77
2022-09-10T04:08:47.018Z,1.95
2022-09-10T04:11:15.669Z,1.80
2022-09-10T04:13:43.841Z,1.80
2022-09-10T04:16:13.361Z,2.08
2022-09-10T04:18:41.545Z,1.60
2022-09-10T04:21:10.413Z,1.90
2022-09-10T04:23:39.572Z,1.88
2022-09-10T04:26:19.557Z,1.73
2022-09-10T04:28:47.927Z,1.70
2022-09-10T04:31:16.738Z,1.60
2022-09-10T04:33:46.363Z,1.67
2022-09-10T04:36:15.259Z,1.70
2022-09-10T04:38:45.392Z,1.70
2022-09-10T04:41:16.864Z,1.55
2022-09-10T04:43:45.464Z,1.50
2022-09-10T04:46:14.070Z,1.27
2022-09-10T04:48:43.035Z,1.45
2022-09-10T04:51:16.538Z,1.50
2022-09-10T04:53:47.223Z,1.35
2022-09-10T04:56:16.638Z,1.35
2022-09-10T04:58:45.778Z,1.30
2022-09-10T05:01:15.009Z,1.23
2022-09-10T05:03:43.679Z,1.23
2022-09-10T05:06:12.443Z,1.00
2022-09-10T05:08:41.133Z,1.70
2022-09-10T05:11:09.531Z,1.75
2022-09-10T05:13:38.243Z,1.60
2022-09-10T05:16:07.067Z,1.40
2022-09-10T05:18:36.436Z,1.27
2022-09-10T05:21:06.560Z,1.33
2022-09-10T05:23:34.955Z,1.40
2022-09-10T05:26:03.698Z,1.50
2022-09-10T05:28:32.343Z,1.50
2022-09-10T05:31:01.035Z,1.05
2022-09-10T05:33:29.736Z,1.27
2022-09-10T05:35:58.357Z,1.10
2022-09-10T05:38:27.580Z,1.08
2022-09-10T05:40:57.920Z,1.20
2022-09-10T05:43:25.855Z,1.08
2022-09-10T05:45:55.184Z,1.13
2022-09-10T05:48:23.858Z,1.20
2022-09-10T05:50:52.375Z,1.30
2022-09-10T05:53:21.004Z,1.40
2022-09-10T05:55:50.911Z,1.08
2022-09-10T05:58:19.496Z,0.98
2022-09-10T06:00:52.119Z,1.13
2022-09-10T06:03:21.104Z,0.95
2022-09-10T06:05:51.802Z,1.23
2022-09-10T06:08:24.383Z,0.93
2022-09-10T06:11:07.023Z,0.98
2022-09-10T06:13:36.776Z,0.90
2022-09-10T06:16:06.388Z,1.08
2022-09-10T06:18:35.554Z,1.00
2022-09-10T06:21:10.301Z,1.15
2022-09-10T06:23:40.375Z,1.10
2022-09-10T06:26:13.116Z,1.02
2022-09-10T06:28:42.300Z,1.10
2022-09-10T06:31:15.480Z,1.23
2022-09-10T06:33:44.517Z,0.90
2022-09-10T06:36:13.095Z,1.00
2022-09-10T06:38:42.328Z,0.90
2022-09-10T06:41:15.200Z,1.00
2022-09-10T06:43:44.531Z,1.02
2022-09-10T06:46:54.898Z,1.02
2022-09-10T06:49:07.768Z,0.90
2022-09-10T06:51:36.468Z,0.90
2022-09-10T06:54:05.306Z,1.02
2022-09-10T06:56:33.612Z,1.00
2022-09-10T06:59:02.666Z,1.23
2022-09-10T07:01:31.692Z,1.13
2022-09-10T07:04:02.329Z,0.88
2022-09-10T07:06:36.383Z,1.30
2022-09-10T07:09:06.121Z,0.80
2022-09-10T07:11:39.202Z,0.90
2022-09-10T07:14:13.744Z,1.10
2022-09-10T07:16:46.755Z,0.90
2022-09-10T07:19:16.383Z,1.00
2022-09-10T07:21:46.056Z,0.90
2022-09-10T07:24:15.417Z,1.17
2022-09-10T07:26:43.744Z,1.10
2022-09-10T07:29:13.312Z,1.00
2022-09-10T07:31:44.634Z,0.90
2022-09-10T07:34:14.303Z,1.10
2022-09-10T07:36:42.934Z,1.00
2022-09-10T07:39:12.543Z,0.93
2022-09-10T07:41:41.147Z,0.85
2022-09-10T07:44:09.737Z,0.82
2022-09-10T07:46:39.223Z,0.98
2022-09-10T07:49:07.929Z,0.93
2022-09-10T07:51:36.674Z,0.90
2022-09-10T07:54:06.239Z,0.98
2022-09-10T07:56:36.288Z,1.10
2022-09-10T07:59:04.867Z,1.13
2022-09-10T08:01:33.418Z,0.90
2022-09-10T08:04:03.563Z,1.00
2022-09-10T08:06:33.535Z,0.90
2022-09-10T08:09:02.483Z,0.90
2022-09-10T08:11:31.299Z,1.00
2022-09-10T08:14:02.142Z,1.00
2022-09-10T08:16:30.530Z,1.00
2022-09-10T08:18:59.416Z,1.10
2022-09-10T08:21:28.547Z,1.13
2022-09-10T08:23:57.475Z,1.10
2022-09-10T08:26:27.726Z,1.60
2022-09-10T08:28:57.058Z,1.38
2022-09-10T08:31:27.606Z,1.17
2022-09-10T08:33:58.047Z,0.90
2022-09-10T08:36:27.624Z,1.00
2022-09-10T08:39:01.408Z,0.95
2022-09-10T08:41:45.618Z,0.98
2022-09-10T08:44:28.897Z,0.90
2022-09-10T08:47:24.126Z,1.33
2022-09-10T08:50:26.085Z,1.15
2022-09-10T08:53:24.219Z,0.85
2022-09-10T08:55:58.902Z,1.08
2022-09-10T08:58:54.750Z,1.00
2022-09-10T09:01:37.635Z,1.10
2022-09-10T09:04:14.590Z,1.30
2022-09-10T09:06:51.781Z,1.15
2022-09-10T09:09:20.534Z,0.90
2022-09-10T09:12:16.932Z,0.93
2022-09-10T09:15:06.886Z,1.10
2022-09-10T09:18:22.310Z,0.80
2022-09-10T09:20:56.473Z,1.20
2022-09-10T09:24:03.035Z,1.15
2022-09-10T09:26:39.606Z,1.15
2022-09-10T09:29:20.573Z,1.13
2022-09-10T09:31:52.967Z,1.00
2022-09-10T09:34:30.491Z,0.90
2022-09-10T09:37:02.203Z,1.67
2022-09-10T09:40:06.940Z,1.05
2022-09-10T09:42:46.717Z,1.02
2022-09-10T09:45:38.583Z,1.25
2022-09-10T09:48:08.971Z,1.13
2022-09-10T09:50:43.296Z,1.00
2022-09-10T09:53:21.735Z,1.55
2022-09-10T09:56:00.208Z,1.05
2022-09-10T09:58:31.803Z,1.08
2022-09-10T10:01:06.415Z,1.25
2022-09-10T10:04:04.047Z,1.30
2022-09-10T10:06:35.865Z,1.23
2022-09-10T10:09:24.471Z,1.20
2022-09-10T10:11:56.666Z,1.13
2022-09-10T10:14:40.641Z,1.40
2022-09-10T10:17:32.625Z,1.02
2022-09-10T10:20:03.520Z,1.17
2022-09-10T10:22:33.128Z,1.02
2022-09-10T10:25:03.292Z,1.10
2022-09-10T10:27:44.156Z,1.27
2022-09-10T10:30:18.536Z,1.30
2022-09-10T10:33:05.636Z,1.30
2022-09-10T10:35:48.079Z,1.20
2022-09-10T10:38:37.056Z,1.20
2022-09-10T10:41:06.719Z,1.20
2022-09-10T10:43:58.406Z,1.00
2022-09-10T10:46:29.923Z,1.20
2022-09-10T10:49:33.889Z,1.40
2022-09-10T10:52:36.384Z,1.30
2022-09-10T10:55:24.449Z,1.00
2022-09-10T10:58:14.907Z,1.30
2022-09-10T11:00:53.471Z,1.00
2022-09-10T11:03:33.114Z,1.52
2022-09-10T11:06:24.766Z,1.08
2022-09-10T11:09:15.134Z,1.30
2022-09-10T11:12:08.089Z,1.13
2022-09-10T11:14:51.033Z,1.50
2022-09-10T11:17:42.517Z,1.23
2022-09-10T11:20:29.654Z,1.52
2022-09-10T11:23:12.216Z,1.33
2022-09-10T11:26:14.727Z,1.10
2022-09-10T11:29:14.586Z,1.27
2022-09-10T11:31:55.171Z,1.17
2022-09-10T11:34:30.121Z,1.00
2022-09-10T11:37:11.236Z,1.17
2022-09-10T11:39:47.856Z,1.00
2022-09-10T11:42:41.079Z,1.20
2022-09-10T11:45:26.322Z,1.85
2022-09-10T11:48:03.776Z,1.40
2022-09-10T11:50:39.192Z,1.10
2022-09-10T11:53:08.678Z,1.40
2022-09-10T11:56:29.146Z,1.35
2022-09-10T11:59:43.575Z,1.30
2022-09-10T12:05:34.190Z,1.23
2022-09-10T12:08:15.131Z,1.00
2022-09-10T12:11:16.443Z,1.48
2022-09-10T12:13:47.036Z,1.08
2022-09-10T12:16:21.485Z,1.35
2022-09-10T12:18:56.549Z,1.17
2022-09-10T12:21:35.626Z,1.40
2022-09-10T12:24:22.813Z,1.30
2022-09-10T12:26:51.195Z,1.10
2022-09-10T12:29:42.035Z,1.38
2022-09-10T12:32:14.866Z,1.15
2022-09-10T12:34:43.962Z,1.25
2022-09-10T12:37:12.477Z,1.10
2022-09-10T12:39:41.034Z,0.98
2022-09-10T12:42:31.330Z,1.30
2022-09-10T12:45:00.088Z,1.23
2022-09-10T12:47:48.064Z,1.55
2022-09-10T12:50:29.971Z,1.35
2022-09-10T12:53:07.764Z,1.40
2022-09-10T12:55:52.022Z,1.00
2022-09-10T12:58:47.516Z,1.25
2022-09-10T13:01:40.319Z,1.13
2022-09-10T13:04:25.993Z,1.45
2022-09-10T13:07:00.580Z,1.38
2022-09-10T13:09:34.060Z,1.10
2022-09-10T13:12:07.417Z,1.40
2022-09-10T13:17:08.221Z,1.20
2022-09-10T13:19:37.977Z,1.25
2022-09-10T13:22:34.743Z,1.27
2022-09-10T13:25:25.184Z,1.40
2022-09-10T13:27:53.872Z,1.40
2022-09-10T13:30:24.889Z,1.48
2022-09-10T13:32:58.019Z,1.20
2022-09-10T13:35:42.562Z,1.08
2022-09-10T13:38:25.143Z,1.50
2022-09-10T13:40:53.628Z,1.40
2022-09-10T13:43:42.299Z,1.30
2022-09-10T13:46:22.356Z,1.45
2022-09-10T13:49:19.917Z,1.50
2022-09-10T13:51:55.457Z,1.20
2022-09-10T13:54:26.780Z,2.78
2022-09-10T13:56:56.644Z,1.80
2022-09-10T13:59:32.188Z,1.58
2022-09-10T14:02:03.853Z,1.40
2022-09-10T14:04:38.433Z,1.60
2022-09-10T14:07:14.294Z,1.63
2022-09-10T14:09:50.200Z,1.80
2022-09-10T14:12:22.198Z,1.27
2022-09-10T14:14:57.087Z,1.15
2022-09-10T14:17:42.463Z,2.13
2022-09-10T14:20:27.835Z,1.60
2022-09-10T14:23:04.084Z,1.70
2022-09-10T14:25:36.250Z,1.90
2022-09-10T14:28:28.227Z,1.67
2022-09-10T14:31:24.915Z,1.67
2022-09-10T14:33:55.014Z,1.40
2022-09-10T14:36:41.445Z,2.40
2022-09-10T14:39:24.086Z,1.80
2022-09-10T14:42:11.598Z,1.60
2022-09-10T14:44:44.674Z,2.03
2022-09-10T14:47:14.010Z,1.95
2022-09-10T14:49:46.431Z,2.00
2022-09-10T14:52:15.319Z,2.17
2022-09-10T14:54:43.921Z,1.67
2022-09-10T14:57:17.945Z,1.65
2022-09-10T14:59:53.127Z,2.08
2022-09-10T15:02:28.528Z,1.65
2022-09-10T15:04:57.122Z,2.30
2022-09-10T15:07:25.980Z,2.20
2022-09-10T15:09:55.045Z,1.95
2022-09-10T15:12:27.970Z,1.80
2022-09-10T15:14:56.761Z,2.20
2022-09-10T15:17:25.280Z,2.20
2022-09-10T15:19:54.780Z,2.00
2022-09-10T15:22:30.747Z,2.40
2022-09-10T15:25:11.165Z,2.80
2022-09-10T15:27:40.374Z,2.30
2022-09-10T15:30:09.426Z,2.00
2022-09-10T15:32:37.985Z,2.25
2022-09-10T15:35:07.089Z,2.45
2022-09-10T15:37:35.824Z,2.13
2022-09-10T15:40:05.657Z,2.85
2022-09-10T15:42:34.322Z,2.58
2022-09-10T15:45:02.871Z,2.90
2022-09-10T15:47:34.654Z,2.70
2022-09-10T15:50:03.646Z,3.17
2022-09-10T15:52:32.271Z,3.15
2022-09-10T15:55:00.794Z,2.63
2022-09-10T15:57:29.623Z,3.92
2022-09-10T15:59:58.402Z,3.50
2022-09-10T16:02:27.071Z,3.42
2022-09-10T16:04:55.641Z,2.72
2022-09-10T16:07:24.236Z,3.58
2022-09-10T16:09:52.801Z,3.50
2022-09-10T16:12:21.437Z,3.15
2022-09-10T16:14:49.958Z,4.13
2022-09-10T16:17:18.623Z,3.95
2022-09-10T16:19:47.179Z,3.53
2022-09-10T16:22:20.652Z,4.13
2022-09-10T16:24:49.306Z,3.85
2022-09-10T16:27:18.707Z,4.18
2022-09-10T16:29:48.343Z,3.67
2022-09-10T16:32:16.937Z,4.13
2022-09-10T16:34:45.213Z,4.57
2022-09-10T16:37:13.714Z,4.68
2022-09-10T16:39:42.486Z,4.72
2022-09-10T16:42:10.854Z,4.68
2022-09-10T16:44:39.983Z,5.20
2022-09-10T16:47:08.779Z,4.82
2022-09-10T16:49:37.365Z,5.60
2022-09-10T16:52:06.459Z,5.57
2022-09-10T16:54:35.228Z,5.78
2022-09-10T16:57:03.748Z,5.57
2022-09-10T16:59:32.394Z,5.30
2022-09-10T17:02:01.569Z,5.63
2022-09-10T17:04:30.203Z,5.45
2022-09-10T17:06:59.452Z,5.95
2022-09-10T17:09:28.188Z,5.65
2022-09-10T17:11:57.084Z,5.97
2022-09-10T17:14:25.755Z,5.75
2022-09-10T17:16:54.681Z,6.80
2022-09-10T17:19:27.484Z,6.50
2022-09-10T17:21:57.452Z,5.97
2022-09-10T17:24:27.506Z,6.82
2022-09-10T17:26:59.432Z,7.13
2022-09-10T17:29:27.905Z,6.45
2022-09-10T17:31:59.800Z,7.30
2022-09-10T17:34:29.391Z,9.10
2022-09-10T17:36:58.123Z,6.57
2022-09-10T17:39:29.607Z,7.07
2022-09-10T17:41:58.317Z,8.23
2022-09-10T17:44:28.139Z,8.32
2022-09-10T17:46:56.485Z,8.07
2022-09-10T17:49:25.410Z,8.63
2022-09-10T17:51:54.231Z,8.55
2022-09-10T17:54:22.650Z,8.93
2022-09-10T17:56:51.365Z,9.60
2022-09-10T17:59:20.058Z,9.90
2022-09-10T18:01:49.185Z,9.82
2022-09-10T18:04:17.728Z,9.93
2022-09-10T18:06:50.282Z,10.98
2022-09-10T18:09:21.150Z,11.15
2022-09-10T18:11:49.771Z,11.48
2022-09-10T18:14:19.780Z,12.05
2022-09-10T18:16:48.810Z,12.15
2022-09-10T18:19:19.136Z,13.05
2022-09-10T18:21:48.994Z,14.27
2022-09-10T18:24:25.417Z,14.10
2022-09-10T18:26:56.357Z,14.75
2022-09-10T18:29:37.513Z,14.85
2022-09-10T18:32:11.113Z,14.55
2022-09-10T18:34:42.533Z,15.68
2022-09-10T18:37:12.445Z,15.95
2022-09-10T18:39:42.811Z,15.70
2022-09-10T18:42:12.549Z,17.42
2022-09-10T18:44:42.506Z,17.52
2022-09-10T18:47:34.086Z,17.48
2022-09-10T18:50:01.756Z,18.15
2022-09-10T18:52:31.521Z,21.55
2022-09-10T18:55:00.767Z,21.85
2022-09-10T18:57:29.344Z,22.15
2022-09-10T18:59:58.192Z,22.98
2022-09-10T19:02:26.729Z,26.58
2022-09-10T19:05:10.723Z,27.50
2022-09-10T19:07:40.217Z,27.40
2022-09-10T19:10:10.137Z,28.05
2022-09-10T19:12:38.714Z,27.23
2022-09-10T19:15:07.886Z,27.17
2022-09-10T19:17:36.596Z,27.90
2022-09-10T19:20:05.700Z,29.65
2022-09-10T19:22:35.131Z,29.88
2022-09-10T19:25:04.863Z,30.45
2022-09-10T19:27:35.518Z,31.42
2022-09-10T19:30:04.047Z,33.22
2022-09-10T19:32:32.727Z,34.97
2022-09-10T19:35:01.315Z,33.92
2022-09-10T19:37:29.947Z,33.75
2022-09-10T19:39:58.613Z,37.13
2022-09-10T19:42:27.227Z,38.10
2022-09-10T19:44:56.003Z,37.85
2022-09-10T19:47:25.917Z,38.15
2022-09-10T19:49:54.458Z,37.78
2022-09-10T19:52:25.344Z,35.72
2022-09-10T19:54:53.911Z,34.22
2022-09-10T19:57:22.975Z,35.47
2022-09-10T19:59:51.487Z,36.88
2022-09-10T20:02:20.449Z,36.75
2022-09-10T20:04:48.819Z,36.42
2022-09-10T20:07:17.583Z,37.20
2022-09-10T20:09:46.157Z,36.22
2022-09-10T20:12:17.758Z,34.47
2022-09-10T20:14:46.424Z,35.00
2022-09-10T20:17:15.613Z,32.95
2022-09-10T20:19:43.845Z,32.60
2022-09-10T20:22:12.828Z,34.05
2022-09-10T20:24:41.413Z,35.53
2022-09-10T20:27:09.984Z,32.95
2022-09-10T20:29:38.533Z,32.22
2022-09-10T20:32:08.091Z,32.58
2022-09-10T20:34:38.010Z,33.83
2022-09-10T20:37:06.553Z,32.50
2022-09-10T20:39:35.843Z,32.80
2022-09-10T20:42:05.990Z,31.83
2022-09-10T20:44:34.553Z,30.45
2022-09-10T20:47:04.804Z,31.85
2022-09-10T20:49:33.705Z,32.55
2022-09-10T20:52:02.328Z,32.70
2022-09-10T20:54:30.922Z,31.27
2022-09-10T20:56:59.643Z,32.40
2022-09-10T20:59:28.300Z,32.15
2022-09-10T21:01:57.948Z,32.38
2022-09-10T21:04:27.448Z,30.92
2022-09-10T21:06:56.483Z,30.65
2022-09-10T21:09:25.078Z,32.55
2022-09-10T21:11:53.411Z,30.45
2022-09-10T21:14:22.311Z,31.42
2022-09-10T21:16:50.620Z,31.55
2022-09-10T21:19:19.281Z,31.90
2022-09-10T21:21:50.072Z,31.23
2022-09-10T21:24:21.532Z,32.53
2022-09-10T21:26:51.413Z,30.67
2022-09-10T21:29:22.315Z,31.60
2022-09-10T21:31:51.902Z,30.77
2022-09-10T21:34:20.646Z,30.23
2022-09-10T21:36:48.989Z,30.17
2022-09-10T21:39:19.039Z,31.40
2022-09-10T21:41:50.395Z,32.53
2022-09-10T21:44:23.449Z,33.65
2022-09-10T21:46:52.767Z,33.55
2022-09-10T21:49:22.356Z,39.85
2022-09-10T21:51:51.412Z,38.28
2022-09-10T21:54:22.540Z,38.90
2022-09-10T21:56:51.861Z,38.15
2022-09-10T21:59:21.514Z,37.88
2022-09-10T22:01:50.226Z,34.03
2022-09-10T22:04:22.906Z,33.22
2022-09-10T22:06:52.506Z,33.55
2022-09-10T22:09:22.559Z,37.95
2022-09-10T22:11:53.228Z,37.17
2022-09-10T22:14:26.875Z,30.83
2022-09-10T22:16:56.337Z,32.47
2022-09-10T22:19:27.107Z,34.00
2022-09-10T22:21:58.428Z,34.08
2022-09-10T22:24:27.453Z,33.50
2022-09-10T22:26:56.059Z,32.88
2022-09-10T22:29:24.998Z,36.95
2022-09-10T22:31:53.689Z,38.90
2022-09-10T22:34:22.374Z,40.17
2022-09-10T22:36:50.688Z,36.20
2022-09-10T22:39:22.014Z,36.13
2022-09-10T22:41:52.054Z,36.45
2022-09-10T22:44:20.907Z,35.85
2022-09-10T22:46:49.607Z,36.40
2022-09-10T22:49:18.621Z,39.17
2022-09-10T22:51:47.929Z,36.33
2022-09-10T22:54:17.501Z,38.00
2022-09-10T22:56:46.327Z,36.70
2022-09-10T22:59:16.365Z,37.15
2022-09-10T23:01:48.433Z,36.75
2022-09-10T23:04:17.802Z,37.30
2022-09-10T23:06:46.401Z,37.50
2022-09-10T23:09:18.974Z,35.63
2022-09-10T23:11:47.698Z,34.35
2022-09-10T23:14:20.071Z,38.00
2022-09-10T23:19:25.241Z,34.75
2022-09-10T23:21:56.587Z,32.58
2022-09-10T23:24:28.418Z,31.98
2022-09-10T23:26:58.003Z,30.80
2022-09-10T23:29:26.588Z,32.28
2022-09-10T23:31:55.713Z,30.42
2022-09-10T23:34:24.837Z,30.73
2022-09-10T23:36:53.855Z,29.65
2022-09-10T23:39:24.899Z,29.42
2022-09-10T23:41:56.406Z,27.80
2022-09-10T23:44:25.120Z,27.87
2022-09-10T23:46:54.720Z,27.95
2022-09-10T23:49:25.254Z,29.30
2022-09-10T23:51:54.338Z,28.35
2022-09-10T23:54:22.909Z,27.77
2022-09-10T23:56:51.641Z,27.15
2022-09-10T23:59:20.702Z,27.35
